ソウル/仁川 の空港の天気 - METARとTAF

仁川国際空港 ( RKSI / ICN ) - 韓国 仁川広域市 (ソウル特別市近郊)
飛行場実況気象(Metar)
観測時間12/01 05:00 KST (11/30 20:00 UTC)
風向・風速北 3m/s
視程10km以上
天気現象
なし
気温-3℃
湿度63%
気圧1037hPa
METARRKSI 302000Z 36006KT CAVOK M03/M09 Q1037 NOSIG
過去の天気等 Google飛行場航空写真 Wunderground天気予報

過去48時間のMETAR

飛行場予報(TAF)
発表時間: 12/01 02:00 KST (11/30 17:00 UTC)
予報対象時間: 1日3時 KST ~ 2日9時 KST
風向・風速東北東 3m/s
視程10km以上
少しの雲 雲底高度 910m
全天の4割程度の雲 雲底高度 4570m
1日10時 KST ~ 1日11時 KST に徐々に
風向・風速北北西 4m/s
視程10km以上
なし
2日2時 KST ~ 2日3時 KST に徐々に
風向・風速東北東 3m/s
視程10km以上
全天の8割程度の雲 雲底高度 910m
全天の8割程度の雲 雲底高度 2740m
TAF RKSI 301700Z 3018/0124 07006KT 9999 FEW030 SCT150 TNM03/3022Z TX05/0106Z TN00/0115Z
BECMG 0101/0102 33007KT CAVOK
BECMG 0117/0118 07006KT 9999 BKN030 BKN090